createdAt,value
2018-03-19T00:02:18.317Z,16.40
2018-03-19T00:04:45.875Z,19.40
2018-03-19T00:07:13.434Z,21.30
2018-03-19T00:09:41.003Z,18.43
2018-03-19T00:12:08.628Z,14.70
2018-03-19T00:14:36.203Z,15.37
2018-03-19T00:17:03.824Z,14.70
2018-03-19T00:19:31.460Z,18.10
2018-03-19T00:21:59.033Z,16.37
2018-03-19T00:24:26.660Z,16.33
2018-03-19T00:26:54.234Z,16.77
2018-03-19T00:29:21.797Z,16.00
2018-03-19T00:31:49.440Z,17.30
2018-03-19T00:34:16.997Z,15.47
2018-03-19T00:36:44.640Z,16.80
2018-03-19T00:39:12.210Z,14.80
2018-03-19T00:41:39.907Z,16.50
2018-03-19T00:44:07.471Z,14.83
2018-03-19T00:46:35.034Z,17.23
2018-03-19T00:49:02.672Z,14.83
2018-03-19T00:51:30.243Z,17.23
2018-03-19T00:53:57.884Z,15.90
2018-03-19T00:56:25.454Z,17.53
2018-03-19T00:58:53.107Z,17.83
2018-03-19T01:01:20.685Z,14.63
2018-03-19T01:03:48.363Z,17.70
2018-03-19T01:06:15.928Z,16.60
2018-03-19T01:08:43.490Z,16.40
2018-03-19T01:11:11.059Z,16.20
2018-03-19T01:13:38.645Z,17.20
2018-03-19T01:16:06.217Z,15.77
2018-03-19T01:18:33.779Z,15.70
2018-03-19T01:21:01.342Z,15.97
2018-03-19T01:23:28.966Z,15.10
2018-03-19T01:25:56.537Z,16.90
2018-03-19T01:28:24.158Z,17.03
2018-03-19T01:30:51.797Z,18.37
2018-03-19T01:33:19.419Z,17.10
2018-03-19T01:35:47.039Z,16.80
2018-03-19T01:38:14.613Z,15.97
2018-03-19T01:40:42.178Z,16.53
2018-03-19T01:43:09.754Z,16.50
2018-03-19T01:45:37.320Z,19.80
2018-03-19T01:48:04.892Z,17.60
2018-03-19T01:50:32.451Z,15.50
2018-03-19T01:53:00.036Z,16.20
2018-03-19T01:55:27.674Z,15.50
2018-03-19T01:57:55.271Z,14.47
2018-03-19T02:00:22.900Z,16.50
2018-03-19T02:02:50.518Z,16.30
2018-03-19T02:05:18.093Z,14.93
2018-03-19T02:07:45.657Z,15.47
2018-03-19T02:10:13.278Z,13.53
2018-03-19T02:12:40.857Z,13.37
2018-03-19T02:15:08.424Z,14.70
2018-03-19T02:17:36.001Z,15.13
2018-03-19T02:20:03.659Z,15.73
2018-03-19T02:22:31.227Z,16.10
2018-03-19T02:24:58.889Z,13.63
2018-03-19T02:27:26.579Z,15.83
2018-03-19T02:29:54.202Z,16.27
2018-03-19T02:32:21.780Z,14.10
2018-03-19T02:34:49.360Z,14.50
2018-03-19T02:37:17.001Z,12.17
2018-03-19T02:39:44.585Z,13.17
2018-03-19T02:42:12.150Z,12.97
2018-03-19T02:44:39.741Z,14.40
2018-03-19T02:47:07.307Z,14.70
2018-03-19T02:49:34.967Z,14.97
2018-03-19T02:52:02.538Z,14.73
2018-03-19T02:54:30.120Z,14.60
2018-03-19T02:56:57.696Z,13.20
2018-03-19T02:59:25.324Z,14.30
2018-03-19T03:01:52.920Z,13.90
2018-03-19T03:04:20.493Z,14.10
2018-03-19T03:06:48.070Z,14.57
2018-03-19T03:09:15.648Z,13.73
2018-03-19T03:11:43.281Z,15.07
2018-03-19T03:14:10.856Z,13.93
2018-03-19T03:16:38.442Z,15.63
2018-03-19T03:19:06.019Z,16.17
2018-03-19T03:21:33.642Z,14.63
2018-03-19T03:24:01.283Z,14.70
2018-03-19T03:26:28.854Z,13.90
2018-03-19T03:28:56.494Z,11.67
2018-03-19T03:31:24.057Z,13.40
2018-03-19T03:33:51.710Z,15.20
2018-03-19T03:36:19.289Z,13.80
2018-03-19T03:38:46.858Z,13.60
2018-03-19T03:41:14.433Z,13.63
2018-03-19T03:43:42.002Z,14.80
2018-03-19T03:46:09.615Z,11.30
2018-03-19T03:48:37.220Z,11.50
2018-03-19T03:51:04.809Z,15.23
2018-03-19T03:53:32.377Z,13.93
2018-03-19T03:56:00.003Z,12.70
2018-03-19T03:58:27.572Z,13.50
2018-03-19T04:00:55.142Z,13.47
2018-03-19T04:03:22.776Z,14.10
2018-03-19T04:05:50.348Z,13.23
2018-03-19T04:08:17.984Z,13.37
2018-03-19T04:10:45.551Z,15.20
2018-03-19T04:13:13.199Z,14.00
2018-03-19T04:15:40.773Z,13.23
2018-03-19T04:18:08.390Z,13.40
2018-03-19T04:20:35.971Z,13.83
2018-03-19T04:23:03.604Z,12.37
2018-03-19T04:25:31.174Z,14.23
2018-03-19T04:27:58.795Z,14.10
2018-03-19T04:30:26.432Z,12.60
2018-03-19T04:32:53.997Z,14.73
2018-03-19T04:35:21.648Z,14.97
2018-03-19T04:37:49.231Z,13.53
2018-03-19T04:40:16.865Z,13.83
2018-03-19T04:42:44.444Z,14.37
2018-03-19T04:45:12.010Z,13.97
2018-03-19T04:47:39.582Z,14.67
2018-03-19T04:50:07.148Z,14.60
2018-03-19T04:52:34.728Z,14.43
2018-03-19T04:55:02.311Z,14.20
2018-03-19T04:57:29.879Z,13.20
2018-03-19T04:59:57.440Z,13.70
2018-03-19T05:02:25.051Z,12.30
2018-03-19T05:04:52.674Z,12.97
2018-03-19T05:07:20.238Z,13.93
2018-03-19T05:09:47.818Z,14.17
2018-03-19T05:12:15.384Z,14.97
2018-03-19T05:14:42.972Z,14.30
2018-03-19T05:17:10.608Z,14.53
2018-03-19T05:19:38.242Z,18.70
2018-03-19T05:22:05.809Z,17.60
2018-03-19T05:24:33.451Z,15.83
2018-03-19T05:27:01.020Z,16.90
2018-03-19T05:29:28.591Z,16.20
2018-03-19T05:31:56.206Z,18.80
2018-03-19T05:34:23.844Z,18.83
2018-03-19T05:36:51.480Z,15.30
2018-03-19T05:39:19.110Z,16.83
2018-03-19T05:41:46.680Z,16.40
2018-03-19T05:44:14.247Z,15.03
2018-03-19T05:46:41.873Z,14.37
2018-03-19T05:49:09.456Z,15.27
2018-03-19T05:51:37.089Z,13.70
2018-03-19T05:54:04.673Z,13.73
2018-03-19T05:56:32.238Z,17.75
2018-03-19T05:58:59.923Z,13.47
2018-03-19T06:01:27.492Z,14.47
2018-03-19T06:03:55.061Z,13.87
2018-03-19T06:06:23.026Z,13.60
2018-03-19T06:08:50.808Z,14.80
2018-03-19T06:11:18.370Z,15.43
2018-03-19T06:13:45.987Z,14.63
2018-03-19T06:16:13.562Z,14.70
2018-03-19T06:18:41.133Z,13.17
2018-03-19T06:21:08.702Z,11.90
2018-03-19T06:23:36.284Z,16.97
2018-03-19T06:26:03.899Z,20.27
2018-03-19T06:28:31.476Z,13.43
2018-03-19T06:30:59.103Z,12.50
2018-03-19T06:33:26.738Z,13.40
2018-03-19T06:35:54.342Z,12.37
2018-03-19T06:38:22.011Z,13.17
2018-03-19T06:40:49.574Z,13.37
2018-03-19T06:43:17.148Z,15.33
2018-03-19T06:45:44.791Z,15.13
2018-03-19T06:48:12.450Z,12.10
2018-03-19T06:50:40.028Z,12.83
2018-03-19T06:53:07.589Z,11.40
2018-03-19T06:55:35.299Z,13.70
2018-03-19T06:58:02.953Z,11.80
2018-03-19T07:00:30.520Z,10.83
2018-03-19T07:02:58.090Z,11.57
2018-03-19T07:05:25.655Z,10.93
2018-03-19T07:07:53.291Z,11.87
2018-03-19T07:10:22.584Z,10.57
2018-03-19T07:12:50.264Z,12.60
2018-03-19T07:15:17.823Z,12.33
2018-03-19T07:17:45.443Z,11.13
2018-03-19T07:20:13.018Z,11.30
2018-03-19T07:22:40.645Z,13.10
2018-03-19T07:25:08.275Z,10.80
2018-03-19T07:27:35.894Z,12.60
2018-03-19T07:30:03.480Z,12.80
2018-03-19T07:32:31.038Z,9.73
2018-03-19T07:34:58.598Z,10.53
2018-03-19T07:37:26.189Z,11.10
2018-03-19T07:39:53.759Z,18.23
2018-03-19T07:42:21.326Z,16.93
2018-03-19T07:44:48.887Z,14.97
2018-03-19T07:47:16.579Z,13.73
2018-03-19T07:49:44.230Z,16.87
2018-03-19T07:52:11.872Z,24.80
2018-03-19T07:54:39.446Z,16.80
2018-03-19T07:57:07.007Z,12.40
2018-03-19T07:59:34.578Z,14.30
2018-03-19T08:02:02.220Z,14.03
2018-03-19T08:04:29.804Z,12.60
2018-03-19T08:06:57.422Z,15.90
2018-03-19T08:09:25.071Z,14.73
2018-03-19T08:11:52.648Z,14.13
2018-03-19T08:14:20.215Z,15.20
2018-03-19T08:16:47.843Z,13.03
2018-03-19T08:19:15.402Z,26.60
2018-03-19T08:21:43.018Z,12.30
2018-03-19T08:24:10.639Z,14.10
2018-03-19T08:26:38.267Z,13.27
2018-03-19T08:29:05.838Z,10.50
2018-03-19T08:31:33.406Z,10.90
2018-03-19T08:34:00.996Z,9.50
2018-03-19T08:36:28.616Z,9.17
2018-03-19T08:38:56.246Z,9.60
2018-03-19T08:41:23.879Z,11.90
2018-03-19T08:43:51.540Z,15.90
2018-03-19T08:46:19.179Z,11.33
2018-03-19T08:48:46.784Z,8.60
2018-03-19T08:51:14.418Z,12.77
2018-03-19T08:53:41.982Z,10.03
2018-03-19T08:56:09.607Z,9.70
2018-03-19T08:58:37.216Z,10.00
2018-03-19T09:01:04.772Z,9.83
2018-03-19T09:03:32.402Z,12.57
2018-03-19T09:05:59.973Z,12.10
2018-03-19T09:08:27.660Z,13.33
2018-03-19T09:10:55.279Z,11.80
2018-03-19T09:13:22.842Z,12.93
2018-03-19T09:15:50.470Z,12.90
2018-03-19T09:18:18.047Z,11.70
2018-03-19T09:20:45.617Z,12.43
2018-03-19T09:23:13.189Z,11.43
2018-03-19T09:25:40.861Z,10.27
2018-03-19T09:28:08.439Z,10.70
2018-03-19T09:30:36.054Z,9.83
2018-03-19T09:33:03.673Z,9.63
2018-03-19T09:35:31.230Z,11.03
2018-03-19T09:37:58.876Z,12.67
2018-03-19T09:40:26.448Z,12.90
2018-03-19T09:42:54.015Z,12.93
2018-03-19T09:45:21.590Z,9.97
2018-03-19T09:47:49.158Z,9.13
2018-03-19T09:50:16.731Z,11.10
2018-03-19T09:52:44.292Z,10.87
2018-03-19T09:55:11.985Z,9.70
2018-03-19T09:57:39.550Z,10.40
2018-03-19T10:00:07.175Z,11.53
2018-03-19T10:02:34.807Z,12.10
2018-03-19T10:05:02.369Z,11.10
2018-03-19T10:07:29.981Z,11.67
2018-03-19T10:09:57.558Z,10.20
2018-03-19T10:12:25.246Z,10.00
2018-03-19T10:14:52.868Z,10.80
2018-03-19T10:17:20.434Z,11.00
2018-03-19T10:19:48.003Z,9.93
2018-03-19T10:22:15.627Z,12.23
2018-03-19T10:24:43.226Z,11.07
2018-03-19T10:27:10.796Z,12.37
2018-03-19T10:29:38.430Z,10.53
2018-03-19T10:32:06.068Z,11.20
2018-03-19T10:34:33.648Z,11.60
2018-03-19T10:37:01.283Z,10.60
2018-03-19T10:39:28.839Z,11.70
2018-03-19T10:41:56.415Z,11.23
2018-03-19T10:44:23.974Z,11.80
2018-03-19T10:46:51.541Z,11.30
2018-03-19T10:49:19.107Z,12.87
2018-03-19T10:51:46.724Z,13.43
2018-03-19T10:54:14.293Z,12.87
2018-03-19T10:56:41.861Z,11.37
2018-03-19T10:59:09.431Z,12.53
2018-03-19T11:01:42.521Z,12.00
2018-03-19T11:04:14.462Z,12.10
2018-03-19T11:06:47.563Z,12.03
2018-03-19T11:09:20.623Z,12.37
2018-03-19T11:15:46.311Z,10.67
2018-03-19T11:18:13.923Z,12.60
2018-03-19T11:20:41.572Z,11.97
2018-03-19T11:23:09.198Z,12.30
2018-03-19T11:25:36.880Z,14.10
2018-03-19T11:28:04.450Z,12.60
2018-03-19T11:30:32.014Z,14.93
2018-03-19T11:32:59.597Z,12.57
2018-03-19T11:35:27.166Z,15.40
2018-03-19T11:37:55.300Z,13.10
2018-03-19T11:40:22.881Z,12.27
2018-03-19T11:42:50.514Z,11.67
2018-03-19T11:45:18.105Z,14.20
2018-03-19T11:47:46.311Z,12.40
2018-03-19T11:50:14.746Z,13.47
2018-03-19T11:52:43.896Z,13.80
2018-03-19T11:55:11.486Z,13.03
2018-03-19T11:57:41.774Z,16.10
2018-03-19T12:00:10.217Z,15.37
2018-03-19T12:02:37.796Z,13.20
2018-03-19T12:05:05.386Z,13.60
2018-03-19T12:07:32.962Z,12.90
2018-03-19T12:10:00.546Z,16.00
2018-03-19T12:15:17.420Z,13.60
2018-03-19T12:17:45.055Z,12.80
2018-03-19T12:20:13.056Z,13.70
2018-03-19T12:22:40.702Z,15.30
2018-03-19T12:25:08.270Z,12.47
2018-03-19T12:27:35.860Z,15.20
2018-03-19T12:30:04.122Z,12.80
2018-03-19T12:32:31.698Z,12.30
2018-03-19T12:34:59.270Z,17.07
2018-03-19T12:37:26.843Z,12.33
2018-03-19T12:39:54.414Z,12.67
2018-03-19T12:42:22.988Z,10.97
2018-03-19T12:44:52.662Z,12.37
2018-03-19T12:47:20.259Z,12.80
2018-03-19T12:49:48.768Z,12.00
2018-03-19T12:52:16.342Z,13.80
2018-03-19T12:54:43.927Z,13.17
2018-03-19T12:57:11.534Z,10.97
2018-03-19T12:59:39.690Z,10.63
2018-03-19T13:02:09.240Z,11.50
2018-03-19T13:04:39.488Z,12.73
2018-03-19T13:07:07.100Z,11.40
2018-03-19T13:09:34.660Z,13.47
2018-03-19T13:12:02.808Z,11.47
2018-03-19T13:14:30.384Z,11.63
2018-03-19T13:16:57.947Z,12.27
2018-03-19T13:19:26.350Z,11.97
2018-03-19T13:21:54.009Z,12.00
2018-03-19T13:24:21.615Z,11.27
2018-03-19T13:26:49.177Z,12.13
2018-03-19T13:29:16.738Z,14.20
2018-03-19T13:31:44.363Z,11.37
2018-03-19T13:34:11.913Z,11.93
2018-03-19T13:36:39.482Z,11.80
2018-03-19T13:39:07.046Z,14.00
2018-03-19T13:41:34.651Z,19.23
2018-03-19T13:44:02.220Z,12.20
2018-03-19T13:46:29.814Z,12.70
2018-03-19T13:48:57.386Z,13.40
2018-03-19T13:51:24.956Z,13.53
2018-03-19T13:53:52.530Z,12.80
2018-03-19T13:56:20.094Z,16.40
2018-03-19T13:58:48.617Z,16.10
2018-03-19T14:01:16.220Z,12.60
2018-03-19T14:03:43.846Z,14.77
2018-03-19T14:06:11.412Z,13.07
2018-03-19T14:08:38.979Z,15.13
2018-03-19T14:11:06.551Z,22.73
2018-03-19T14:13:34.831Z,20.50
2018-03-19T14:16:02.399Z,22.87
2018-03-19T14:18:31.152Z,22.43
2018-03-19T14:20:58.734Z,21.07
2018-03-19T14:23:26.299Z,24.37
2018-03-19T14:25:53.898Z,17.53
2018-03-19T14:28:21.463Z,17.47
2018-03-19T14:30:49.035Z,13.50
2018-03-19T14:33:16.605Z,14.70
2018-03-19T14:35:44.173Z,16.00
2018-03-19T14:38:11.758Z,14.70
2018-03-19T14:40:39.322Z,17.23
2018-03-19T14:43:06.895Z,18.73
2018-03-19T14:45:34.471Z,21.63
2018-03-19T14:48:02.110Z,16.77
2018-03-19T14:50:29.773Z,19.47
2018-03-19T14:52:57.292Z,21.33
2018-03-19T14:55:24.862Z,53.60
2018-03-19T14:57:52.423Z,30.80
2018-03-19T15:00:20.018Z,25.53
2018-03-19T15:02:47.604Z,29.07
2018-03-19T15:05:15.174Z,27.20
2018-03-19T15:07:42.738Z,23.83
2018-03-19T15:10:10.341Z,33.33
2018-03-19T15:12:37.995Z,35.67
2018-03-19T15:15:05.557Z,36.73
2018-03-19T15:17:33.205Z,50.10
2018-03-19T15:20:00.768Z,83.37
2018-03-19T15:22:28.348Z,35.30
2018-03-19T15:24:55.911Z,39.53
2018-03-19T15:27:23.477Z,32.53
2018-03-19T15:29:51.049Z,79.33
2018-03-19T15:32:18.650Z,39.80
2018-03-19T15:34:46.222Z,32.00
2018-03-19T15:37:13.789Z,42.67
2018-03-19T15:39:41.442Z,29.33
2018-03-19T15:42:09.003Z,34.77
2018-03-19T15:44:36.578Z,43.57
2018-03-19T15:47:04.142Z,31.97
2018-03-19T15:49:31.710Z,31.10
2018-03-19T15:51:59.307Z,38.33
2018-03-19T15:54:26.922Z,36.20
2018-03-19T15:56:54.494Z,124.33
2018-03-19T15:59:22.073Z,33.97
2018-03-19T16:01:49.646Z,38.07
2018-03-19T16:04:17.223Z,32.13
2018-03-19T16:06:44.796Z,33.10
2018-03-19T16:09:12.357Z,36.50
2018-03-19T16:11:39.963Z,55.40
2018-03-19T16:14:07.543Z,38.80
2018-03-19T16:16:35.152Z,36.60
2018-03-19T16:19:02.727Z,55.83
2018-03-19T16:21:30.317Z,44.13
2018-03-19T16:23:57.897Z,35.10
2018-03-19T16:26:25.506Z,36.07
2018-03-19T16:28:53.089Z,39.23
2018-03-19T16:31:20.690Z,38.00
2018-03-19T16:33:48.265Z,32.27
2018-03-19T16:36:15.836Z,36.27
2018-03-19T16:38:43.452Z,38.70
2018-03-19T16:41:11.023Z,40.47
2018-03-19T16:43:38.581Z,39.40
2018-03-19T16:46:06.167Z,37.60
2018-03-19T16:48:33.729Z,46.40
2018-03-19T16:51:01.294Z,36.70
2018-03-19T16:53:28.858Z,38.23
2018-03-19T16:55:56.471Z,161.57
2018-03-19T16:58:24.052Z,64.20
2018-03-19T17:00:51.619Z,40.17
2018-03-19T17:03:19.188Z,38.00
2018-03-19T17:05:46.770Z,33.47
2018-03-19T17:08:14.346Z,42.63
2018-03-19T17:10:41.919Z,35.50
2018-03-19T17:13:09.528Z,39.17
2018-03-19T17:15:37.088Z,38.90
2018-03-19T17:18:04.664Z,38.80
2018-03-19T17:20:32.247Z,40.27
2018-03-19T17:22:59.814Z,39.20
2018-03-19T17:25:27.390Z,40.00
2018-03-19T17:27:54.964Z,41.03
2018-03-19T17:30:22.644Z,40.90
2018-03-19T17:32:50.199Z,32.40
2018-03-19T17:35:17.759Z,41.00
2018-03-19T17:37:45.329Z,39.33
2018-03-19T17:40:12.913Z,46.90
2018-03-19T17:42:40.496Z,40.20
2018-03-19T17:45:08.058Z,29.77
2018-03-19T17:47:35.639Z,34.67
2018-03-19T17:50:03.225Z,39.10
2018-03-19T17:52:31.719Z,39.30
2018-03-19T17:54:59.360Z,32.77
2018-03-19T17:57:26.991Z,34.67
2018-03-19T17:59:54.565Z,36.13
2018-03-19T18:02:22.210Z,30.77
2018-03-19T18:04:49.842Z,35.77
2018-03-19T18:07:17.402Z,38.30
2018-03-19T18:09:44.974Z,44.50
2018-03-19T18:12:12.546Z,46.73
2018-03-19T18:14:40.190Z,50.00
2018-03-19T18:17:07.778Z,48.03
2018-03-19T18:19:35.343Z,44.60
2018-03-19T18:22:02.959Z,50.07
2018-03-19T18:24:30.534Z,38.87
2018-03-19T18:26:58.110Z,43.07
2018-03-19T18:29:25.750Z,36.60
2018-03-19T18:31:53.344Z,45.17
2018-03-19T18:34:20.904Z,39.20
2018-03-19T18:36:48.584Z,42.93
2018-03-19T18:39:16.210Z,40.03
2018-03-19T18:41:43.835Z,50.07
2018-03-19T18:44:11.456Z,107.77
2018-03-19T18:46:39.080Z,31.37
2018-03-19T18:49:06.665Z,32.40
2018-03-19T18:51:34.733Z,38.40
2018-03-19T18:54:02.443Z,35.57
2018-03-19T18:56:30.077Z,54.00
2018-03-19T18:58:57.643Z,42.83
2018-03-19T19:01:25.231Z,36.03
2018-03-19T19:03:52.890Z,38.20
2018-03-19T19:06:20.526Z,43.57
2018-03-19T19:08:48.213Z,52.03
2018-03-19T19:11:15.844Z,40.57
2018-03-19T19:13:43.422Z,47.80
2018-03-19T19:16:10.995Z,36.10
2018-03-19T19:18:38.570Z,38.57
2018-03-19T19:21:06.130Z,36.03
2018-03-19T19:23:33.707Z,35.63
2018-03-19T19:26:01.274Z,36.90
2018-03-19T19:28:28.864Z,31.80
2018-03-19T19:30:56.487Z,41.20
2018-03-19T19:33:24.061Z,56.37
2018-03-19T19:35:51.776Z,31.17
2018-03-19T19:38:19.399Z,33.30
2018-03-19T19:40:46.966Z,35.20
2018-03-19T19:43:14.527Z,32.30
2018-03-19T19:45:42.106Z,29.93
2018-03-19T19:48:09.736Z,38.30
2018-03-19T19:50:37.312Z,28.17
2018-03-19T19:53:04.892Z,37.97
2018-03-19T19:55:32.463Z,31.80
2018-03-19T19:58:00.036Z,32.23
2018-03-19T20:00:27.681Z,28.30
2018-03-19T20:02:55.313Z,35.73
2018-03-19T20:05:22.925Z,28.57
2018-03-19T20:07:50.559Z,30.07
2018-03-19T20:10:18.168Z,55.00
2018-03-19T20:12:45.745Z,28.73
2018-03-19T20:15:13.336Z,33.37
2018-03-19T20:17:40.914Z,30.33
2018-03-19T20:20:08.480Z,36.87
2018-03-19T20:22:36.059Z,39.30
2018-03-19T20:25:03.628Z,40.77
2018-03-19T20:27:31.375Z,34.10
2018-03-19T20:29:58.919Z,31.77
2018-03-19T20:32:26.479Z,30.43
2018-03-19T20:34:54.051Z,41.57
2018-03-19T20:37:21.634Z,30.40
2018-03-19T20:39:49.218Z,37.60
2018-03-19T20:42:16.780Z,34.30
2018-03-19T20:44:44.360Z,62.33
2018-03-19T20:47:12.034Z,48.37
2018-03-19T20:49:39.676Z,32.90
2018-03-19T20:52:07.245Z,47.73
2018-03-19T20:54:34.834Z,33.37
2018-03-19T20:57:02.403Z,29.40
2018-03-19T20:59:30.043Z,31.00
2018-03-19T21:01:57.626Z,32.60
2018-03-19T21:04:25.196Z,34.53
2018-03-19T21:06:52.765Z,30.10
2018-03-19T21:09:22.305Z,35.13
2018-03-19T21:11:49.878Z,30.10
2018-03-19T21:14:17.446Z,28.23
2018-03-19T21:16:45.150Z,25.30
2018-03-19T21:19:12.776Z,25.40
2018-03-19T21:21:40.403Z,23.43
2018-03-19T21:24:08.032Z,22.17
2018-03-19T21:26:35.607Z,24.97
2018-03-19T21:29:03.195Z,24.33
2018-03-19T21:31:30.831Z,23.13
2018-03-19T21:33:58.451Z,23.30
2018-03-19T21:36:26.079Z,21.70
2018-03-19T21:38:53.643Z,16.80
2018-03-19T21:41:21.223Z,19.77
2018-03-19T21:43:48.843Z,20.50
2018-03-19T21:46:16.420Z,18.03
2018-03-19T21:48:44.042Z,18.20
2018-03-19T21:51:11.663Z,18.97
2018-03-19T21:53:39.259Z,18.67
2018-03-19T21:56:06.822Z,17.33
2018-03-19T21:58:34.433Z,17.70
2018-03-19T22:01:02.002Z,17.57
2018-03-19T22:03:29.637Z,18.27
2018-03-19T22:05:57.269Z,14.70
2018-03-19T22:08:24.887Z,17.70
2018-03-19T22:10:52.462Z,14.77
2018-03-19T22:13:20.092Z,13.90
2018-03-19T22:15:47.666Z,14.23
2018-03-19T22:18:15.235Z,16.50
2018-03-19T22:20:42.818Z,16.17
2018-03-19T22:23:10.442Z,15.00
2018-03-19T22:25:38.024Z,15.00
2018-03-19T22:28:05.656Z,13.63
2018-03-19T22:30:33.338Z,15.00
2018-03-19T22:33:00.960Z,15.93
2018-03-19T22:35:28.529Z,15.47
2018-03-19T22:37:56.163Z,15.80
2018-03-19T22:40:23.736Z,15.20
2018-03-19T22:42:51.331Z,16.17
2018-03-19T22:45:18.899Z,16.80
2018-03-19T22:47:46.586Z,15.10
2018-03-19T22:50:14.150Z,15.30
2018-03-19T22:52:41.766Z,16.20
2018-03-19T22:55:09.332Z,14.90
2018-03-19T22:57:36.895Z,16.93
2018-03-19T23:00:04.551Z,16.97
2018-03-19T23:02:32.171Z,17.00
2018-03-19T23:08:01.565Z,14.90
2018-03-19T23:10:29.191Z,14.17
2018-03-19T23:12:56.810Z,13.53
2018-03-19T23:15:24.382Z,14.73
2018-03-19T23:17:52.030Z,13.70
2018-03-19T23:20:19.609Z,12.53
2018-03-19T23:22:47.249Z,12.87
2018-03-19T23:25:14.836Z,13.70
2018-03-19T23:27:42.454Z,12.47
2018-03-19T23:30:10.052Z,13.20
2018-03-19T23:32:37.619Z,12.03
2018-03-19T23:35:05.236Z,14.33
2018-03-19T23:37:32.806Z,13.10
2018-03-19T23:40:00.394Z,12.93
2018-03-19T23:42:27.954Z,10.93
2018-03-19T23:44:55.526Z,12.33
2018-03-19T23:47:23.109Z,10.40
2018-03-19T23:49:50.753Z,11.80
2018-03-19T23:52:18.319Z,11.57
2018-03-19T23:54:45.878Z,11.30
2018-03-19T23:57:13.448Z,9.90
2018-03-19T23:59:41.032Z,10.90
